Wylliesburg, Virginia
Current Conditions -  °F | °C
As of 1:55 AM on Friday 31 Oct 2014 (Local Time) from KCXE Reporting Station
Clear Clear  
Wind Chill: 45°   Ceiling: Unl
Heat Index: 47°   Visibility: 10mi
Dew Point: 39°   Wind: 5mph
Humidity: 74%   Direction: 10°N
Pressure: 30.01"   Gusts: NA
Location:  36.86°N, 78.59°W
Report Text: KCXE 310555Z AUTO 01004KT 10SM CLR 08/04 A3001 RMK AO1 T00830040 10132 20083
Loading
Personal Weather Stations






























Interactive Weather Map
Tropical Storm Tracking
New forecast layout! Learn more

10-Day Weather Forecast

Advertisements
Track Severe Weather on mobile